sensor_id;sensor_type;location;lat;lon;timestamp;P1;durP1;ratioP1;P2;durP2;ratioP2
20966;SDS011;10642;50.682;18.510;2023-04-06T00:02:18;61.83;;;28.30;;
20966;SDS011;10642;50.682;18.510;2023-04-06T00:04:44;62.30;;;28.87;;
20966;SDS011;10642;50.682;18.510;2023-04-06T00:07:11;63.10;;;29.53;;
20966;SDS011;10642;50.682;18.510;2023-04-06T00:09:39;61.87;;;28.17;;
20966;SDS011;10642;50.682;18.510;2023-04-06T00:12:06;55.90;;;27.57;;
20966;SDS011;10642;50.682;18.510;2023-04-06T00:14:33;57.30;;;27.53;;
20966;SDS011;10642;50.682;18.510;2023-04-06T00:16:59;59.80;;;28.60;;
20966;SDS011;10642;50.682;18.510;2023-04-06T00:19:26;56.93;;;27.17;;
20966;SDS011;10642;50.682;18.510;2023-04-06T00:21:53;59.73;;;28.03;;
20966;SDS011;10642;50.682;18.510;2023-04-06T00:24:20;56.77;;;27.60;;
20966;SDS011;10642;50.682;18.510;2023-04-06T00:26:47;57.93;;;26.43;;
20966;SDS011;10642;50.682;18.510;2023-04-06T00:29:14;56.07;;;25.57;;
20966;SDS011;10642;50.682;18.510;2023-04-06T00:31:41;55.60;;;24.90;;
20966;SDS011;10642;50.682;18.510;2023-04-06T00:34:09;53.57;;;26.10;;
20966;SDS011;10642;50.682;18.510;2023-04-06T00:36:36;55.93;;;27.07;;
20966;SDS011;10642;50.682;18.510;2023-04-06T00:39:03;47.00;;;25.43;;
20966;SDS011;10642;50.682;18.510;2023-04-06T00:41:30;56.60;;;26.40;;
20966;SDS011;10642;50.682;18.510;2023-04-06T00:43:57;53.23;;;25.13;;
20966;SDS011;10642;50.682;18.510;2023-04-06T00:46:24;50.63;;;25.93;;
20966;SDS011;10642;50.682;18.510;2023-04-06T00:48:51;51.60;;;25.33;;
20966;SDS011;10642;50.682;18.510;2023-04-06T00:51:18;50.40;;;25.07;;
20966;SDS011;10642;50.682;18.510;2023-04-06T00:53:45;50.73;;;24.43;;
20966;SDS011;10642;50.682;18.510;2023-04-06T00:56:12;46.00;;;24.00;;
20966;SDS011;10642;50.682;18.510;2023-04-06T00:58:51;51.63;;;24.80;;
20966;SDS011;10642;50.682;18.510;2023-04-06T01:01:18;55.50;;;25.13;;
20966;SDS011;10642;50.682;18.510;2023-04-06T01:03:47;52.97;;;24.80;;
20966;SDS011;10642;50.682;18.510;2023-04-06T01:06:18;49.00;;;22.60;;
20966;SDS011;10642;50.682;18.510;2023-04-06T01:08:53;47.07;;;24.23;;
20966;SDS011;10642;50.682;18.510;2023-04-06T01:11:23;48.20;;;24.53;;
20966;SDS011;10642;50.682;18.510;2023-04-06T01:13:52;44.60;;;24.10;;
20966;SDS011;10642;50.682;18.510;2023-04-06T01:16:25;44.33;;;23.13;;
20966;SDS011;10642;50.682;18.510;2023-04-06T01:19:09;52.57;;;22.77;;
20966;SDS011;10642;50.682;18.510;2023-04-06T01:21:39;48.77;;;24.57;;
20966;SDS011;10642;50.682;18.510;2023-04-06T01:24:09;45.37;;;22.70;;
20966;SDS011;10642;50.682;18.510;2023-04-06T01:26:51;44.50;;;22.30;;
20966;SDS011;10642;50.682;18.510;2023-04-06T01:29:18;50.23;;;22.30;;
20966;SDS011;10642;50.682;18.510;2023-04-06T01:31:46;45.10;;;23.17;;
20966;SDS011;10642;50.682;18.510;2023-04-06T01:34:14;48.80;;;22.03;;
20966;SDS011;10642;50.682;18.510;2023-04-06T01:36:41;44.27;;;22.83;;
20966;SDS011;10642;50.682;18.510;2023-04-06T01:39:22;51.27;;;24.23;;
20966;SDS011;10642;50.682;18.510;2023-04-06T01:41:49;50.93;;;22.13;;
20966;SDS011;10642;50.682;18.510;2023-04-06T01:44:19;49.77;;;23.43;;
20966;SDS011;10642;50.682;18.510;2023-04-06T01:46:52;56.43;;;24.63;;
20966;SDS011;10642;50.682;18.510;2023-04-06T01:49:19;45.83;;;24.63;;
20966;SDS011;10642;50.682;18.510;2023-04-06T01:51:51;49.70;;;25.63;;
20966;SDS011;10642;50.682;18.510;2023-04-06T01:54:19;56.07;;;27.33;;
20966;SDS011;10642;50.682;18.510;2023-04-06T01:57:05;52.37;;;25.30;;
20966;SDS011;10642;50.682;18.510;2023-04-06T01:59:45;53.60;;;25.93;;
20966;SDS011;10642;50.682;18.510;2023-04-06T02:02:25;49.93;;;25.57;;
20966;SDS011;10642;50.682;18.510;2023-04-06T02:04:59;48.97;;;23.90;;
20966;SDS011;10642;50.682;18.510;2023-04-06T02:07:27;52.30;;;26.20;;
20966;SDS011;10642;50.682;18.510;2023-04-06T02:09:55;49.23;;;26.03;;
20966;SDS011;10642;50.682;18.510;2023-04-06T02:12:33;49.73;;;25.33;;
20966;SDS011;10642;50.682;18.510;2023-04-06T02:15:01;49.03;;;24.87;;
20966;SDS011;10642;50.682;18.510;2023-04-06T02:17:28;46.67;;;24.97;;
20966;SDS011;10642;50.682;18.510;2023-04-06T02:19:55;55.97;;;25.80;;
20966;SDS011;10642;50.682;18.510;2023-04-06T02:22:22;48.63;;;24.67;;
20966;SDS011;10642;50.682;18.510;2023-04-06T02:24:49;48.97;;;24.87;;
20966;SDS011;10642;50.682;18.510;2023-04-06T02:27:16;51.07;;;24.97;;
20966;SDS011;10642;50.682;18.510;2023-04-06T02:29:45;48.60;;;25.00;;
20966;SDS011;10642;50.682;18.510;2023-04-06T02:32:17;48.13;;;24.27;;
20966;SDS011;10642;50.682;18.510;2023-04-06T02:34:45;47.97;;;24.83;;
20966;SDS011;10642;50.682;18.510;2023-04-06T02:37:14;47.00;;;24.13;;
20966;SDS011;10642;50.682;18.510;2023-04-06T02:39:41;50.40;;;23.80;;
20966;SDS011;10642;50.682;18.510;2023-04-06T02:42:08;49.03;;;24.23;;
20966;SDS011;10642;50.682;18.510;2023-04-06T02:44:35;48.33;;;22.90;;
20966;SDS011;10642;50.682;18.510;2023-04-06T02:47:02;44.10;;;23.70;;
20966;SDS011;10642;50.682;18.510;2023-04-06T02:49:29;46.63;;;22.70;;
20966;SDS011;10642;50.682;18.510;2023-04-06T02:51:58;43.13;;;22.63;;
20966;SDS011;10642;50.682;18.510;2023-04-06T02:54:31;49.77;;;25.93;;
20966;SDS011;10642;50.682;18.510;2023-04-06T02:57:00;50.97;;;23.67;;
20966;SDS011;10642;50.682;18.510;2023-04-06T02:59:40;48.30;;;25.37;;
20966;SDS011;10642;50.682;18.510;2023-04-06T03:02:18;46.20;;;25.60;;
20966;SDS011;10642;50.682;18.510;2023-04-06T03:04:46;54.67;;;24.20;;
20966;SDS011;10642;50.682;18.510;2023-04-06T03:07:22;52.33;;;23.93;;
20966;SDS011;10642;50.682;18.510;2023-04-06T03:09:49;48.00;;;23.30;;
20966;SDS011;10642;50.682;18.510;2023-04-06T03:12:17;46.40;;;23.73;;
20966;SDS011;10642;50.682;18.510;2023-04-06T03:15:12;49.27;;;24.67;;
20966;SDS011;10642;50.682;18.510;2023-04-06T03:17:44;47.90;;;22.67;;
20966;SDS011;10642;50.682;18.510;2023-04-06T03:20:23;44.93;;;23.97;;
20966;SDS011;10642;50.682;18.510;2023-04-06T03:22:50;58.23;;;24.10;;
20966;SDS011;10642;50.682;18.510;2023-04-06T03:25:22;45.60;;;22.23;;
20966;SDS011;10642;50.682;18.510;2023-04-06T03:27:49;45.13;;;22.53;;
20966;SDS011;10642;50.682;18.510;2023-04-06T03:30:18;39.70;;;21.50;;
20966;SDS011;10642;50.682;18.510;2023-04-06T03:32:45;43.67;;;22.13;;
20966;SDS011;10642;50.682;18.510;2023-04-06T03:35:12;40.83;;;21.47;;
20966;SDS011;10642;50.682;18.510;2023-04-06T03:37:39;42.83;;;21.30;;
20966;SDS011;10642;50.682;18.510;2023-04-06T03:40:06;45.33;;;21.93;;
20966;SDS011;10642;50.682;18.510;2023-04-06T03:42:33;41.70;;;21.73;;
20966;SDS011;10642;50.682;18.510;2023-04-06T03:45:05;38.23;;;20.47;;
20966;SDS011;10642;50.682;18.510;2023-04-06T03:47:33;43.57;;;22.37;;
20966;SDS011;10642;50.682;18.510;2023-04-06T03:50:04;42.57;;;20.67;;
20966;SDS011;10642;50.682;18.510;2023-04-06T03:52:34;42.03;;;21.13;;
20966;SDS011;10642;50.682;18.510;2023-04-06T03:55:01;41.20;;;19.77;;
20966;SDS011;10642;50.682;18.510;2023-04-06T03:57:28;47.60;;;21.60;;
20966;SDS011;10642;50.682;18.510;2023-04-06T03:59:56;39.30;;;21.30;;
20966;SDS011;10642;50.682;18.510;2023-04-06T04:02:25;45.57;;;22.90;;
20966;SDS011;10642;50.682;18.510;2023-04-06T04:04:52;47.67;;;22.83;;
20966;SDS011;10642;50.682;18.510;2023-04-06T04:07:19;51.57;;;23.23;;
20966;SDS011;10642;50.682;18.510;2023-04-06T04:09:46;46.30;;;23.13;;
20966;SDS011;10642;50.682;18.510;2023-04-06T04:12:13;53.23;;;23.23;;
20966;SDS011;10642;50.682;18.510;2023-04-06T04:14:42;73.70;;;28.97;;
20966;SDS011;10642;50.682;18.510;2023-04-06T04:17:09;98.43;;;31.60;;
20966;SDS011;10642;50.682;18.510;2023-04-06T04:19:36;69.37;;;26.43;;
20966;SDS011;10642;50.682;18.510;2023-04-06T04:22:03;52.63;;;25.43;;
20966;SDS011;10642;50.682;18.510;2023-04-06T04:24:34;56.60;;;25.07;;
20966;SDS011;10642;50.682;18.510;2023-04-06T04:27:01;51.57;;;24.53;;
20966;SDS011;10642;50.682;18.510;2023-04-06T04:29:30;50.77;;;23.97;;
20966;SDS011;10642;50.682;18.510;2023-04-06T04:32:02;59.03;;;25.67;;
20966;SDS011;10642;50.682;18.510;2023-04-06T04:34:29;57.63;;;24.43;;
20966;SDS011;10642;50.682;18.510;2023-04-06T04:36:57;59.97;;;26.13;;
20966;SDS011;10642;50.682;18.510;2023-04-06T04:39:36;58.27;;;24.70;;
20966;SDS011;10642;50.682;18.510;2023-04-06T04:42:05;47.47;;;24.13;;
20966;SDS011;10642;50.682;18.510;2023-04-06T04:44:34;48.67;;;23.77;;
20966;SDS011;10642;50.682;18.510;2023-04-06T04:47:02;53.50;;;25.33;;
20966;SDS011;10642;50.682;18.510;2023-04-06T04:49:39;51.30;;;25.13;;
20966;SDS011;10642;50.682;18.510;2023-04-06T04:52:06;48.23;;;23.77;;
20966;SDS011;10642;50.682;18.510;2023-04-06T04:54:47;44.00;;;24.10;;
20966;SDS011;10642;50.682;18.510;2023-04-06T04:57:22;61.70;;;25.23;;
20966;SDS011;10642;50.682;18.510;2023-04-06T04:59:49;58.10;;;25.73;;
20966;SDS011;10642;50.682;18.510;2023-04-06T05:02:18;44.30;;;24.43;;
20966;SDS011;10642;50.682;18.510;2023-04-06T05:05:05;49.77;;;24.53;;
20966;SDS011;10642;50.682;18.510;2023-04-06T05:07:32;49.13;;;23.87;;
20966;SDS011;10642;50.682;18.510;2023-04-06T05:10:01;48.80;;;25.40;;
20966;SDS011;10642;50.682;18.510;2023-04-06T05:12:33;47.87;;;24.67;;
20966;SDS011;10642;50.682;18.510;2023-04-06T05:15:08;51.27;;;26.33;;
20966;SDS011;10642;50.682;18.510;2023-04-06T05:17:36;47.63;;;24.50;;
20966;SDS011;10642;50.682;18.510;2023-04-06T05:20:05;47.13;;;24.23;;
20966;SDS011;10642;50.682;18.510;2023-04-06T05:22:39;57.10;;;26.67;;
20966;SDS011;10642;50.682;18.510;2023-04-06T05:25:09;54.63;;;27.47;;
20966;SDS011;10642;50.682;18.510;2023-04-06T05:27:37;55.63;;;30.13;;
20966;SDS011;10642;50.682;18.510;2023-04-06T05:30:11;61.53;;;31.47;;
20966;SDS011;10642;50.682;18.510;2023-04-06T05:32:43;64.50;;;32.80;;
20966;SDS011;10642;50.682;18.510;2023-04-06T05:35:11;60.10;;;32.00;;
20966;SDS011;10642;50.682;18.510;2023-04-06T05:37:42;59.93;;;32.37;;
20966;SDS011;10642;50.682;18.510;2023-04-06T05:40:09;64.07;;;31.27;;
20966;SDS011;10642;50.682;18.510;2023-04-06T05:42:37;63.40;;;31.03;;
20966;SDS011;10642;50.682;18.510;2023-04-06T05:45:06;56.97;;;30.87;;
20966;SDS011;10642;50.682;18.510;2023-04-06T05:47:33;58.07;;;29.63;;
20966;SDS011;10642;50.682;18.510;2023-04-06T05:50:10;59.57;;;30.57;;
20966;SDS011;10642;50.682;18.510;2023-04-06T05:52:39;64.97;;;30.83;;
20966;SDS011;10642;50.682;18.510;2023-04-06T05:55:11;54.60;;;26.93;;
20966;SDS011;10642;50.682;18.510;2023-04-06T05:57:41;59.77;;;28.33;;
20966;SDS011;10642;50.682;18.510;2023-04-06T06:00:08;59.00;;;29.37;;
20966;SDS011;10642;50.682;18.510;2023-04-06T06:02:47;61.50;;;28.90;;
20966;SDS011;10642;50.682;18.510;2023-04-06T06:05:18;64.03;;;28.13;;
20966;SDS011;10642;50.682;18.510;2023-04-06T06:07:46;61.87;;;29.80;;
20966;SDS011;10642;50.682;18.510;2023-04-06T06:10:13;62.63;;;27.70;;
20966;SDS011;10642;50.682;18.510;2023-04-06T06:12:40;61.63;;;28.93;;
20966;SDS011;10642;50.682;18.510;2023-04-06T06:15:07;61.07;;;28.33;;
20966;SDS011;10642;50.682;18.510;2023-04-06T06:17:39;62.33;;;28.97;;
20966;SDS011;10642;50.682;18.510;2023-04-06T06:20:06;59.17;;;29.20;;
20966;SDS011;10642;50.682;18.510;2023-04-06T06:22:33;100.23;;;50.67;;
20966;SDS011;10642;50.682;18.510;2023-04-06T06:25:02;59.33;;;29.83;;
20966;SDS011;10642;50.682;18.510;2023-04-06T06:27:29;59.57;;;31.80;;
20966;SDS011;10642;50.682;18.510;2023-04-06T06:29:56;54.33;;;28.13;;
20966;SDS011;10642;50.682;18.510;2023-04-06T06:32:23;56.83;;;28.27;;
20966;SDS011;10642;50.682;18.510;2023-04-06T06:34:52;65.83;;;36.27;;
20966;SDS011;10642;50.682;18.510;2023-04-06T06:37:19;54.43;;;28.20;;
20966;SDS011;10642;50.682;18.510;2023-04-06T06:39:47;51.43;;;25.07;;
20966;SDS011;10642;50.682;18.510;2023-04-06T06:42:15;52.37;;;26.50;;
20966;SDS011;10642;50.682;18.510;2023-04-06T06:44:52;55.13;;;25.97;;
20966;SDS011;10642;50.682;18.510;2023-04-06T06:47:19;56.03;;;25.23;;
20966;SDS011;10642;50.682;18.510;2023-04-06T06:49:46;57.90;;;26.17;;
20966;SDS011;10642;50.682;18.510;2023-04-06T06:52:13;58.57;;;25.30;;
20966;SDS011;10642;50.682;18.510;2023-04-06T06:54:40;59.13;;;25.37;;
20966;SDS011;10642;50.682;18.510;2023-04-06T06:57:07;51.33;;;25.43;;
20966;SDS011;10642;50.682;18.510;2023-04-06T06:59:35;52.00;;;24.90;;
20966;SDS011;10642;50.682;18.510;2023-04-06T07:02:02;32.83;;;15.87;;
20966;SDS011;10642;50.682;18.510;2023-04-06T07:04:30;28.03;;;13.37;;
20966;SDS011;10642;50.682;18.510;2023-04-06T07:06:56;27.37;;;13.40;;
20966;SDS011;10642;50.682;18.510;2023-04-06T07:09:24;18.50;;;11.17;;
20966;SDS011;10642;50.682;18.510;2023-04-06T07:11:51;27.10;;;13.43;;
20966;SDS011;10642;50.682;18.510;2023-04-06T07:14:18;20.83;;;12.37;;
20966;SDS011;10642;50.682;18.510;2023-04-06T07:16:45;20.20;;;11.90;;
20966;SDS011;10642;50.682;18.510;2023-04-06T07:19:14;20.57;;;11.60;;
20966;SDS011;10642;50.682;18.510;2023-04-06T07:21:41;16.73;;;11.17;;
20966;SDS011;10642;50.682;18.510;2023-04-06T07:24:09;21.83;;;11.77;;
20966;SDS011;10642;50.682;18.510;2023-04-06T07:26:36;22.67;;;11.60;;
20966;SDS011;10642;50.682;18.510;2023-04-06T07:29:03;20.13;;;11.90;;
20966;SDS011;10642;50.682;18.510;2023-04-06T07:31:31;19.40;;;10.63;;
20966;SDS011;10642;50.682;18.510;2023-04-06T07:33:58;18.93;;;10.87;;
20966;SDS011;10642;50.682;18.510;2023-04-06T07:36:25;15.53;;;8.83;;
20966;SDS011;10642;50.682;18.510;2023-04-06T07:38:52;17.20;;;9.53;;
20966;SDS011;10642;50.682;18.510;2023-04-06T07:41:19;16.00;;;10.93;;
20966;SDS011;10642;50.682;18.510;2023-04-06T07:43:47;22.07;;;12.40;;
20966;SDS011;10642;50.682;18.510;2023-04-06T07:46:14;22.67;;;14.60;;
20966;SDS011;10642;50.682;18.510;2023-04-06T07:48:41;22.33;;;13.27;;
20966;SDS011;10642;50.682;18.510;2023-04-06T07:51:08;28.20;;;12.93;;
20966;SDS011;10642;50.682;18.510;2023-04-06T07:53:38;24.90;;;13.27;;
20966;SDS011;10642;50.682;18.510;2023-04-06T07:56:05;20.80;;;12.87;;
20966;SDS011;10642;50.682;18.510;2023-04-06T07:58:33;23.50;;;13.27;;
20966;SDS011;10642;50.682;18.510;2023-04-06T08:01:00;16.73;;;11.23;;
20966;SDS011;10642;50.682;18.510;2023-04-06T08:03:27;18.73;;;10.57;;
20966;SDS011;10642;50.682;18.510;2023-04-06T08:05:54;19.40;;;11.63;;
20966;SDS011;10642;50.682;18.510;2023-04-06T08:08:22;21.60;;;11.03;;
20966;SDS011;10642;50.682;18.510;2023-04-06T08:10:49;22.73;;;11.33;;
20966;SDS011;10642;50.682;18.510;2023-04-06T08:13:16;23.93;;;11.20;;
20966;SDS011;10642;50.682;18.510;2023-04-06T08:15:43;19.30;;;10.53;;
20966;SDS011;10642;50.682;18.510;2023-04-06T08:18:10;25.73;;;13.40;;
20966;SDS011;10642;50.682;18.510;2023-04-06T08:20:37;19.47;;;11.83;;
20966;SDS011;10642;50.682;18.510;2023-04-06T08:23:04;23.43;;;12.03;;
20966;SDS011;10642;50.682;18.510;2023-04-06T08:25:31;23.07;;;13.03;;
20966;SDS011;10642;50.682;18.510;2023-04-06T08:27:58;24.13;;;13.33;;
20966;SDS011;10642;50.682;18.510;2023-04-06T08:30:25;21.93;;;13.60;;
20966;SDS011;10642;50.682;18.510;2023-04-06T08:32:52;24.50;;;13.23;;
20966;SDS011;10642;50.682;18.510;2023-04-06T08:35:19;22.77;;;13.30;;
20966;SDS011;10642;50.682;18.510;2023-04-06T08:37:46;25.17;;;13.93;;
20966;SDS011;10642;50.682;18.510;2023-04-06T08:40:13;22.77;;;13.07;;
20966;SDS011;10642;50.682;18.510;2023-04-06T08:42:40;19.90;;;12.50;;
20966;SDS011;10642;50.682;18.510;2023-04-06T08:45:10;21.60;;;12.17;;
20966;SDS011;10642;50.682;18.510;2023-04-06T08:47:37;20.33;;;12.40;;
20966;SDS011;10642;50.682;18.510;2023-04-06T08:50:04;18.83;;;11.67;;
20966;SDS011;10642;50.682;18.510;2023-04-06T08:52:31;13.93;;;9.20;;
20966;SDS011;10642;50.682;18.510;2023-04-06T08:54:58;15.10;;;9.53;;
20966;SDS011;10642;50.682;18.510;2023-04-06T08:57:25;17.00;;;10.07;;
20966;SDS011;10642;50.682;18.510;2023-04-06T08:59:52;16.57;;;10.03;;
20966;SDS011;10642;50.682;18.510;2023-04-06T09:02:20;19.13;;;11.13;;
20966;SDS011;10642;50.682;18.510;2023-04-06T09:04:48;17.93;;;10.83;;
20966;SDS011;10642;50.682;18.510;2023-04-06T09:07:16;22.27;;;12.23;;
20966;SDS011;10642;50.682;18.510;2023-04-06T09:09:43;12.70;;;8.13;;
20966;SDS011;10642;50.682;18.510;2023-04-06T09:12:24;15.00;;;9.50;;
20966;SDS011;10642;50.682;18.510;2023-04-06T09:14:51;17.60;;;10.37;;
20966;SDS011;10642;50.682;18.510;2023-04-06T09:17:25;14.57;;;9.17;;
20966;SDS011;10642;50.682;18.510;2023-04-06T09:19:53;16.27;;;9.90;;
20966;SDS011;10642;50.682;18.510;2023-04-06T09:22:20;15.00;;;9.43;;
20966;SDS011;10642;50.682;18.510;2023-04-06T09:24:51;15.37;;;9.13;;
20966;SDS011;10642;50.682;18.510;2023-04-06T09:27:29;16.27;;;9.17;;
20966;SDS011;10642;50.682;18.510;2023-04-06T09:30:10;15.90;;;9.40;;
20966;SDS011;10642;50.682;18.510;2023-04-06T09:32:50;16.07;;;8.80;;
20966;SDS011;10642;50.682;18.510;2023-04-06T09:35:20;17.20;;;9.70;;
20966;SDS011;10642;50.682;18.510;2023-04-06T09:37:47;22.43;;;9.93;;
20966;SDS011;10642;50.682;18.510;2023-04-06T09:40:14;16.67;;;9.73;;
20966;SDS011;10642;50.682;18.510;2023-04-06T09:42:42;18.50;;;10.63;;
20966;SDS011;10642;50.682;18.510;2023-04-06T09:45:09;24.00;;;10.77;;
20966;SDS011;10642;50.682;18.510;2023-04-06T09:47:36;20.60;;;10.23;;
20966;SDS011;10642;50.682;18.510;2023-04-06T09:50:04;13.93;;;8.73;;
20966;SDS011;10642;50.682;18.510;2023-04-06T09:52:32;17.40;;;8.80;;
20966;SDS011;10642;50.682;18.510;2023-04-06T09:55:02;17.03;;;9.50;;
20966;SDS011;10642;50.682;18.510;2023-04-06T09:57:32;16.10;;;8.17;;
20966;SDS011;10642;50.682;18.510;2023-04-06T10:05:09;13.63;;;7.60;;
20966;SDS011;10642;50.682;18.510;2023-04-06T10:07:38;13.70;;;7.70;;
20966;SDS011;10642;50.682;18.510;2023-04-06T10:10:25;14.77;;;8.53;;
20966;SDS011;10642;50.682;18.510;2023-04-06T10:12:52;12.60;;;7.50;;
20966;SDS011;10642;50.682;18.510;2023-04-06T10:15:20;15.60;;;9.20;;
20966;SDS011;10642;50.682;18.510;2023-04-06T10:17:48;12.60;;;7.57;;
20966;SDS011;10642;50.682;18.510;2023-04-06T10:20:24;14.43;;;6.73;;
20966;SDS011;10642;50.682;18.510;2023-04-06T10:25:27;8.80;;;5.90;;
20966;SDS011;10642;50.682;18.510;2023-04-06T10:28:16;10.87;;;5.83;;
20966;SDS011;10642;50.682;18.510;2023-04-06T10:30:42;11.50;;;5.33;;
20966;SDS011;10642;50.682;18.510;2023-04-06T10:33:12;12.57;;;6.70;;
20966;SDS011;10642;50.682;18.510;2023-04-06T10:35:40;10.63;;;6.63;;
20966;SDS011;10642;50.682;18.510;2023-04-06T10:38:07;10.20;;;6.27;;
20966;SDS011;10642;50.682;18.510;2023-04-06T10:40:37;11.00;;;6.60;;
20966;SDS011;10642;50.682;18.510;2023-04-06T10:43:09;12.93;;;7.80;;
20966;SDS011;10642;50.682;18.510;2023-04-06T10:45:36;9.97;;;5.83;;
20966;SDS011;10642;50.682;18.510;2023-04-06T10:48:14;12.57;;;6.60;;
20966;SDS011;10642;50.682;18.510;2023-04-06T10:50:46;13.20;;;7.50;;
20966;SDS011;10642;50.682;18.510;2023-04-06T10:53:20;10.17;;;6.63;;
20966;SDS011;10642;50.682;18.510;2023-04-06T10:55:47;12.37;;;7.67;;
20966;SDS011;10642;50.682;18.510;2023-04-06T10:58:15;11.10;;;6.87;;
20966;SDS011;10642;50.682;18.510;2023-04-06T11:00:46;14.43;;;6.90;;
20966;SDS011;10642;50.682;18.510;2023-04-06T11:03:16;13.03;;;8.70;;
20966;SDS011;10642;50.682;18.510;2023-04-06T11:05:44;13.13;;;7.63;;
20966;SDS011;10642;50.682;18.510;2023-04-06T11:10:49;14.40;;;8.20;;
20966;SDS011;10642;50.682;18.510;2023-04-06T11:13:16;15.37;;;7.93;;
20966;SDS011;10642;50.682;18.510;2023-04-06T11:15:43;14.80;;;7.93;;
20966;SDS011;10642;50.682;18.510;2023-04-06T11:18:10;13.30;;;8.70;;
20966;SDS011;10642;50.682;18.510;2023-04-06T11:20:38;14.10;;;9.30;;
20966;SDS011;10642;50.682;18.510;2023-04-06T11:23:05;15.63;;;10.37;;
20966;SDS011;10642;50.682;18.510;2023-04-06T11:25:32;17.13;;;9.67;;
20966;SDS011;10642;50.682;18.510;2023-04-06T11:27:59;14.33;;;8.23;;
20966;SDS011;10642;50.682;18.510;2023-04-06T11:30:26;15.23;;;10.43;;
20966;SDS011;10642;50.682;18.510;2023-04-06T11:32:59;14.07;;;9.43;;
20966;SDS011;10642;50.682;18.510;2023-04-06T11:35:27;15.47;;;9.13;;
20966;SDS011;10642;50.682;18.510;2023-04-06T11:37:57;14.60;;;9.30;;
20966;SDS011;10642;50.682;18.510;2023-04-06T11:40:25;18.00;;;9.40;;
20966;SDS011;10642;50.682;18.510;2023-04-06T11:42:57;14.00;;;8.53;;
20966;SDS011;10642;50.682;18.510;2023-04-06T11:45:24;12.73;;;8.23;;
20966;SDS011;10642;50.682;18.510;2023-04-06T11:47:55;12.83;;;8.73;;
20966;SDS011;10642;50.682;18.510;2023-04-06T11:50:22;14.67;;;8.23;;
20966;SDS011;10642;50.682;18.510;2023-04-06T11:52:57;12.10;;;7.63;;
20966;SDS011;10642;50.682;18.510;2023-04-06T11:55:24;13.43;;;7.13;;
20966;SDS011;10642;50.682;18.510;2023-04-06T11:57:51;12.07;;;7.20;;
20966;SDS011;10642;50.682;18.510;2023-04-06T12:00:18;11.23;;;7.40;;
20966;SDS011;10642;50.682;18.510;2023-04-06T12:02:47;10.90;;;7.20;;
20966;SDS011;10642;50.682;18.510;2023-04-06T12:05:14;11.73;;;6.73;;
20966;SDS011;10642;50.682;18.510;2023-04-06T12:07:41;11.83;;;6.93;;
20966;SDS011;10642;50.682;18.510;2023-04-06T12:10:09;12.13;;;7.20;;
20966;SDS011;10642;50.682;18.510;2023-04-06T12:12:36;13.13;;;7.30;;
20966;SDS011;10642;50.682;18.510;2023-04-06T12:15:03;11.20;;;6.63;;
20966;SDS011;10642;50.682;18.510;2023-04-06T12:17:31;10.67;;;6.47;;
20966;SDS011;10642;50.682;18.510;2023-04-06T12:19:58;10.93;;;6.80;;
20966;SDS011;10642;50.682;18.510;2023-04-06T12:22:34;12.13;;;6.87;;
20966;SDS011;10642;50.682;18.510;2023-04-06T12:25:02;10.17;;;6.30;;
20966;SDS011;10642;50.682;18.510;2023-04-06T12:27:29;12.83;;;6.93;;
20966;SDS011;10642;50.682;18.510;2023-04-06T12:29:56;11.73;;;7.37;;
20966;SDS011;10642;50.682;18.510;2023-04-06T12:32:23;10.77;;;6.83;;
20966;SDS011;10642;50.682;18.510;2023-04-06T12:34:51;14.27;;;7.37;;
20966;SDS011;10642;50.682;18.510;2023-04-06T12:37:18;11.30;;;6.37;;
20966;SDS011;10642;50.682;18.510;2023-04-06T12:39:46;10.67;;;6.63;;
20966;SDS011;10642;50.682;18.510;2023-04-06T12:42:14;13.83;;;7.20;;
20966;SDS011;10642;50.682;18.510;2023-04-06T12:44:41;13.77;;;8.60;;
20966;SDS011;10642;50.682;18.510;2023-04-06T12:47:09;13.80;;;8.00;;
20966;SDS011;10642;50.682;18.510;2023-04-06T12:49:37;13.10;;;8.13;;
20966;SDS011;10642;50.682;18.510;2023-04-06T12:52:04;20.93;;;11.13;;
20966;SDS011;10642;50.682;18.510;2023-04-06T12:54:31;12.50;;;8.30;;
20966;SDS011;10642;50.682;18.510;2023-04-06T12:56:58;12.90;;;8.70;;
20966;SDS011;10642;50.682;18.510;2023-04-06T12:59:25;15.53;;;8.57;;
20966;SDS011;10642;50.682;18.510;2023-04-06T13:01:52;14.43;;;8.23;;
20966;SDS011;10642;50.682;18.510;2023-04-06T13:04:19;12.07;;;8.00;;
20966;SDS011;10642;50.682;18.510;2023-04-06T13:06:46;15.40;;;9.93;;
20966;SDS011;10642;50.682;18.510;2023-04-06T13:09:13;14.23;;;9.13;;
20966;SDS011;10642;50.682;18.510;2023-04-06T13:11:40;15.17;;;8.77;;
20966;SDS011;10642;50.682;18.510;2023-04-06T13:14:08;13.77;;;8.73;;
20966;SDS011;10642;50.682;18.510;2023-04-06T13:16:34;17.43;;;9.40;;
20966;SDS011;10642;50.682;18.510;2023-04-06T13:19:03;13.67;;;9.23;;
20966;SDS011;10642;50.682;18.510;2023-04-06T13:21:30;20.70;;;10.33;;
20966;SDS011;10642;50.682;18.510;2023-04-06T13:23:57;16.10;;;9.30;;
20966;SDS011;10642;50.682;18.510;2023-04-06T13:26:23;17.77;;;9.03;;
20966;SDS011;10642;50.682;18.510;2023-04-06T13:28:51;15.20;;;9.10;;
20966;SDS011;10642;50.682;18.510;2023-04-06T13:31:18;15.47;;;9.53;;
20966;SDS011;10642;50.682;18.510;2023-04-06T13:33:46;17.50;;;11.67;;
20966;SDS011;10642;50.682;18.510;2023-04-06T13:36:13;17.80;;;10.30;;
20966;SDS011;10642;50.682;18.510;2023-04-06T13:38:43;18.40;;;10.87;;
20966;SDS011;10642;50.682;18.510;2023-04-06T13:41:17;18.07;;;11.53;;
20966;SDS011;10642;50.682;18.510;2023-04-06T13:43:44;20.93;;;10.43;;
20966;SDS011;10642;50.682;18.510;2023-04-06T13:46:11;14.63;;;10.00;;
20966;SDS011;10642;50.682;18.510;2023-04-06T13:48:38;18.47;;;11.37;;
20966;SDS011;10642;50.682;18.510;2023-04-06T13:51:11;21.50;;;11.40;;
20966;SDS011;10642;50.682;18.510;2023-04-06T13:53:38;16.97;;;10.50;;
20966;SDS011;10642;50.682;18.510;2023-04-06T13:56:07;19.10;;;11.40;;
20966;SDS011;10642;50.682;18.510;2023-04-06T13:58:34;18.20;;;10.93;;
20966;SDS011;10642;50.682;18.510;2023-04-06T14:01:03;19.53;;;12.13;;
20966;SDS011;10642;50.682;18.510;2023-04-06T14:03:30;19.27;;;11.30;;
20966;SDS011;10642;50.682;18.510;2023-04-06T14:05:58;20.17;;;11.67;;
20966;SDS011;10642;50.682;18.510;2023-04-06T14:08:41;20.00;;;10.93;;
20966;SDS011;10642;50.682;18.510;2023-04-06T14:11:11;16.07;;;10.53;;
20966;SDS011;10642;50.682;18.510;2023-04-06T14:13:39;18.70;;;12.20;;
20966;SDS011;10642;50.682;18.510;2023-04-06T14:16:06;20.43;;;12.13;;
20966;SDS011;10642;50.682;18.510;2023-04-06T14:18:33;17.40;;;11.63;;
20966;SDS011;10642;50.682;18.510;2023-04-06T14:21:01;20.53;;;11.43;;
20966;SDS011;10642;50.682;18.510;2023-04-06T14:23:28;19.07;;;10.83;;
20966;SDS011;10642;50.682;18.510;2023-04-06T14:26:01;20.33;;;10.83;;
20966;SDS011;10642;50.682;18.510;2023-04-06T14:28:30;18.47;;;10.37;;
20966;SDS011;10642;50.682;18.510;2023-04-06T14:30:58;20.33;;;12.43;;
20966;SDS011;10642;50.682;18.510;2023-04-06T14:33:26;20.10;;;11.80;;
20966;SDS011;10642;50.682;18.510;2023-04-06T14:35:53;26.70;;;13.03;;